createdAt,value
2023-05-25T00:01:49.052Z,16.77
2023-05-25T00:04:17.461Z,16.58
2023-05-25T00:06:47.467Z,16.25
2023-05-25T00:09:14.983Z,16.13
2023-05-25T00:11:42.251Z,16.52
2023-05-25T00:14:09.661Z,16.85
2023-05-25T00:16:37.613Z,16.52
2023-05-25T00:19:07.314Z,17.63
2023-05-25T00:21:40.744Z,16.15
2023-05-25T00:24:08.716Z,16.63
2023-05-25T00:26:36.342Z,16.05
2023-05-25T00:29:04.663Z,17.13
2023-05-25T00:31:36.618Z,17.60
2023-05-25T00:34:04.106Z,16.77
2023-05-25T00:36:31.363Z,19.55
2023-05-25T00:38:58.703Z,15.85
2023-05-25T00:41:28.648Z,17.48
2023-05-25T00:43:55.965Z,17.67
2023-05-25T00:46:24.040Z,18.13
2023-05-25T00:48:56.363Z,17.08
2023-05-25T00:51:25.004Z,16.85
2023-05-25T00:53:52.430Z,17.80
2023-05-25T00:56:28.346Z,17.85
2023-05-25T00:58:59.799Z,17.88
2023-05-25T01:01:33.826Z,18.85
2023-05-25T01:04:04.937Z,18.80
2023-05-25T01:06:34.867Z,17.98
2023-05-25T01:09:05.734Z,18.15
2023-05-25T01:11:36.776Z,18.15
2023-05-25T01:14:04.274Z,17.50
2023-05-25T01:16:32.261Z,16.57
2023-05-25T01:18:59.671Z,17.90
2023-05-25T01:21:46.123Z,14.93
2023-05-25T01:24:51.215Z,18.52
2023-05-25T01:27:39.671Z,18.02
2023-05-25T01:30:14.101Z,17.23
2023-05-25T01:32:46.001Z,17.48
2023-05-25T01:35:15.081Z,18.02
2023-05-25T01:37:50.013Z,17.05
2023-05-25T01:40:17.359Z,19.27
2023-05-25T01:42:44.879Z,18.90
2023-05-25T01:45:16.882Z,18.83
2023-05-25T01:48:13.139Z,19.17
2023-05-25T01:51:00.656Z,17.50
2023-05-25T01:53:37.167Z,18.80
2023-05-25T01:56:09.645Z,17.77
2023-05-25T01:58:42.786Z,16.02
2023-05-25T02:01:12.366Z,18.58
2023-05-25T02:03:42.615Z,16.48
2023-05-25T02:06:10.066Z,16.85
2023-05-25T02:08:37.374Z,17.87
2023-05-25T02:11:04.780Z,16.70
2023-05-25T02:13:32.098Z,17.10
2023-05-25T02:15:59.473Z,16.35
2023-05-25T02:18:27.903Z,17.65
2023-05-25T02:20:55.412Z,17.35
2023-05-25T02:23:22.765Z,17.17
2023-05-25T02:25:51.798Z,16.48
2023-05-25T02:28:19.157Z,15.93
2023-05-25T02:30:46.535Z,17.27
2023-05-25T02:33:13.974Z,15.75
2023-05-25T02:35:42.084Z,16.45
2023-05-25T02:38:09.588Z,15.10
2023-05-25T02:40:36.845Z,15.85
2023-05-25T02:43:04.193Z,14.43
2023-05-25T02:45:31.625Z,13.75
2023-05-25T02:47:58.972Z,14.45
2023-05-25T02:50:26.398Z,15.15
2023-05-25T02:52:54.932Z,13.38
2023-05-25T02:57:49.699Z,13.13
2023-05-25T03:00:17.552Z,13.40
2023-05-25T03:02:46.899Z,13.70
2023-05-25T03:05:15.182Z,13.57
2023-05-25T03:07:43.306Z,12.10
2023-05-25T03:10:12.198Z,13.50
2023-05-25T03:12:39.472Z,13.07
2023-05-25T03:15:07.553Z,13.38
2023-05-25T03:17:34.895Z,13.93
2023-05-25T03:20:02.441Z,13.93
2023-05-25T03:22:29.865Z,14.18
2023-05-25T03:24:57.180Z,13.00
2023-05-25T03:27:24.464Z,13.70
2023-05-25T03:29:52.051Z,13.90
2023-05-25T03:32:19.409Z,12.82
2023-05-25T03:34:46.688Z,12.90
2023-05-25T03:37:13.985Z,12.52
2023-05-25T03:39:41.260Z,13.18
2023-05-25T03:42:08.700Z,13.68
2023-05-25T03:44:36.044Z,13.00
2023-05-25T03:47:03.365Z,12.52
2023-05-25T03:49:32.241Z,11.93
2023-05-25T03:52:01.997Z,13.02
2023-05-25T03:54:29.255Z,11.95
2023-05-25T03:56:58.718Z,11.18
2023-05-25T03:59:26.465Z,12.02
2023-05-25T04:01:54.001Z,11.48
2023-05-25T04:04:22.062Z,11.83
2023-05-25T04:06:49.481Z,12.75
2023-05-25T04:09:16.748Z,11.30
2023-05-25T04:11:46.944Z,12.45
2023-05-25T04:14:14.250Z,11.70
2023-05-25T04:16:41.824Z,11.38
2023-05-25T04:19:09.264Z,11.13
2023-05-25T04:21:36.836Z,12.48
2023-05-25T04:24:04.324Z,11.50
2023-05-25T04:26:32.055Z,11.07
2023-05-25T04:29:02.036Z,12.70
2023-05-25T04:31:29.526Z,12.13
2023-05-25T04:33:57.096Z,11.83
2023-05-25T04:36:24.421Z,11.73
2023-05-25T04:38:52.320Z,12.32
2023-05-25T04:41:19.812Z,13.02
2023-05-25T04:44:05.658Z,12.98
2023-05-25T04:46:39.248Z,11.18
2023-05-25T04:49:10.177Z,12.52
2023-05-25T04:51:42.393Z,11.48
2023-05-25T04:54:09.738Z,12.23
2023-05-25T04:56:37.079Z,11.43
2023-05-25T04:59:04.501Z,11.15
2023-05-25T05:01:34.343Z,12.15
2023-05-25T05:04:01.923Z,11.75
2023-05-25T05:06:29.275Z,12.70
2023-05-25T05:08:57.584Z,11.35
2023-05-25T05:11:24.855Z,12.27
2023-05-25T05:13:52.097Z,11.88
2023-05-25T05:16:19.579Z,11.50
2023-05-25T05:18:55.704Z,12.73
2023-05-25T05:21:23.559Z,11.82
2023-05-25T05:23:52.227Z,11.68
2023-05-25T05:26:19.609Z,12.65
2023-05-25T05:28:47.136Z,12.40
2023-05-25T05:34:01.488Z,12.27
2023-05-25T05:36:29.717Z,11.93
2023-05-25T05:38:57.080Z,12.23
2023-05-25T05:41:24.434Z,11.95
2023-05-25T05:43:51.683Z,11.65
2023-05-25T05:46:20.231Z,12.88
2023-05-25T05:48:47.547Z,10.70
2023-05-25T05:51:15.156Z,12.37
2023-05-25T05:53:42.544Z,11.63
2023-05-25T05:56:18.658Z,12.50
2023-05-25T05:58:48.838Z,11.90
2023-05-25T06:01:19.677Z,9.15
2023-05-25T06:03:47.638Z,10.18
2023-05-25T06:06:15.828Z,11.40
2023-05-25T06:08:43.715Z,11.13
2023-05-25T06:11:11.231Z,10.55
2023-05-25T06:13:41.270Z,10.60
2023-05-25T06:16:08.684Z,10.85
2023-05-25T06:18:36.243Z,11.20
2023-05-25T06:21:03.790Z,10.10
2023-05-25T06:23:32.196Z,11.37
2023-05-25T06:26:06.865Z,11.00
2023-05-25T06:28:34.682Z,10.43
2023-05-25T06:31:04.726Z,10.07
2023-05-25T06:33:33.555Z,10.48
2023-05-25T06:36:02.396Z,8.35
2023-05-25T06:38:30.246Z,9.77
2023-05-25T06:41:02.526Z,9.13
2023-05-25T06:43:30.606Z,10.02
2023-05-25T06:46:00.860Z,10.23
2023-05-25T06:48:29.804Z,11.30
2023-05-25T06:51:00.387Z,10.25
2023-05-25T06:53:28.188Z,10.77
2023-05-25T06:55:55.894Z,9.80
2023-05-25T06:58:23.589Z,10.43
2023-05-25T07:00:51.433Z,12.50
2023-05-25T07:03:20.178Z,12.48
2023-05-25T07:05:47.695Z,11.87
2023-05-25T07:08:17.723Z,10.00
2023-05-25T07:10:46.228Z,11.10
2023-05-25T07:13:14.732Z,9.85
2023-05-25T07:15:42.368Z,9.67
2023-05-25T07:18:12.665Z,10.13
2023-05-25T07:20:44.099Z,9.73
2023-05-25T07:23:12.451Z,8.32
2023-05-25T07:25:41.764Z,9.95
2023-05-25T07:28:09.809Z,10.73
2023-05-25T07:30:38.855Z,10.63
2023-05-25T07:33:06.887Z,9.00
2023-05-25T07:35:36.618Z,9.55
2023-05-25T07:38:04.916Z,9.88
2023-05-25T07:40:32.595Z,9.55
2023-05-25T07:43:00.540Z,10.00
2023-05-25T07:45:28.166Z,10.00
2023-05-25T07:47:56.002Z,8.77
2023-05-25T07:50:24.094Z,8.73
2023-05-25T07:52:51.974Z,9.05
2023-05-25T07:55:20.605Z,7.72
2023-05-25T07:57:48.187Z,8.43
2023-05-25T08:00:16.200Z,8.73
2023-05-25T08:02:43.950Z,9.25
2023-05-25T08:05:14.898Z,9.57
2023-05-25T08:07:44.551Z,9.45
2023-05-25T08:10:12.489Z,9.35
2023-05-25T08:12:48.920Z,8.95
2023-05-25T08:15:18.918Z,9.27
2023-05-25T08:17:48.412Z,8.02
2023-05-25T08:20:18.922Z,8.30
2023-05-25T08:22:46.996Z,9.02
2023-05-25T08:25:15.300Z,8.35
2023-05-25T08:27:45.576Z,9.60
2023-05-25T08:30:13.543Z,9.30
2023-05-25T08:32:41.569Z,8.93
2023-05-25T08:35:10.302Z,10.07
2023-05-25T08:37:40.408Z,8.10
2023-05-25T08:40:20.713Z,8.50
2023-05-25T08:42:51.930Z,8.38
2023-05-25T08:45:34.142Z,8.25
2023-05-25T08:48:23.880Z,8.20
2023-05-25T08:51:10.618Z,9.32
2023-05-25T08:53:41.719Z,8.57
2023-05-25T08:56:23.511Z,8.90
2023-05-25T08:59:33.386Z,9.00
2023-05-25T09:02:38.232Z,9.23
2023-05-25T09:05:06.713Z,9.20
2023-05-25T09:12:41.180Z,9.07
2023-05-25T23:29:59.398Z,28.10
2023-05-25T23:32:26.722Z,29.25
2023-05-25T23:34:54.017Z,34.47
2023-05-25T23:37:21.826Z,32.58
2023-05-25T23:39:49.050Z,36.85
2023-05-25T23:42:16.908Z,37.53
2023-05-25T23:44:44.308Z,36.05
2023-05-25T23:47:11.706Z,36.38
2023-05-25T23:49:38.932Z,35.97
2023-05-25T23:52:06.804Z,36.80
2023-05-25T23:54:34.140Z,34.33
2023-05-25T23:57:01.379Z,35.63
2023-05-25T23:59:28.672Z,34.40
